createdAt,value
2019-05-10T00:00:46.268Z,11.11
2019-05-10T00:03:35.012Z,11.12
2019-05-10T00:06:23.759Z,11.06
2019-05-10T00:08:53.878Z,11.07
2019-05-10T00:11:38.843Z,11.06
2019-05-10T00:14:29.341Z,11.07
2019-05-10T00:17:01.717Z,11.08
2019-05-10T00:19:32.466Z,11.04
2019-05-10T00:22:03.403Z,11.00
2019-05-10T00:24:35.962Z,11.02
2019-05-10T00:27:08.434Z,11.03
2019-05-10T00:29:39.268Z,11.02
2019-05-10T00:32:10.116Z,11.02
2019-05-10T00:34:40.991Z,11.00
2019-05-10T00:37:11.967Z,10.99
2019-05-10T00:39:42.805Z,11.03
2019-05-10T00:42:13.847Z,11.01
2019-05-10T00:44:44.683Z,10.96
2019-05-10T00:47:15.945Z,10.98
2019-05-10T00:49:46.975Z,11.00
2019-05-10T00:52:18.119Z,10.97
2019-05-10T00:54:49.057Z,10.99
2019-05-10T00:57:21.141Z,10.96
2019-05-10T00:59:51.734Z,10.96
2019-05-10T01:02:23.012Z,11.01
2019-05-10T01:04:54.122Z,11.01
2019-05-10T01:07:25.068Z,10.95
2019-05-10T01:09:55.944Z,10.95
2019-05-10T01:12:27.773Z,10.93
2019-05-10T01:15:00.202Z,10.94
2019-05-10T01:17:31.166Z,10.92
2019-05-10T01:20:03.639Z,10.86
2019-05-10T01:22:34.374Z,10.88
2019-05-10T01:25:08.273Z,10.87
2019-05-10T01:27:39.210Z,10.92
2019-05-10T01:30:11.087Z,10.94
2019-05-10T01:32:41.621Z,10.89
2019-05-10T01:35:13.975Z,10.84
2019-05-10T01:37:45.178Z,10.81
2019-05-10T01:40:16.055Z,10.80
2019-05-10T01:42:47.808Z,10.76
2019-05-10T01:45:18.741Z,10.74
2019-05-10T01:47:50.293Z,10.72
2019-05-10T01:50:21.025Z,10.74
2019-05-10T01:52:51.863Z,10.70
2019-05-10T01:55:22.907Z,10.68
2019-05-10T01:57:53.646Z,10.66
2019-05-10T02:00:24.777Z,10.68
2019-05-10T02:02:55.668Z,10.68
2019-05-10T02:05:26.549Z,10.73
2019-05-10T02:07:58.010Z,10.70
2019-05-10T02:10:29.858Z,10.67
2019-05-10T02:13:00.462Z,10.64
2019-05-10T02:15:31.530Z,10.66
2019-05-10T02:18:02.468Z,10.56
2019-05-10T02:20:36.070Z,10.52
2019-05-10T02:23:07.619Z,10.48
2019-05-10T02:25:38.242Z,10.47
2019-05-10T02:28:09.805Z,10.44
2019-05-10T02:30:42.218Z,10.41
2019-05-10T02:33:13.119Z,10.47
2019-05-10T02:35:44.146Z,10.53
2019-05-10T02:38:15.079Z,10.62
2019-05-10T02:40:45.913Z,10.67
2019-05-10T02:43:16.852Z,10.74
2019-05-10T02:45:47.692Z,10.83
2019-05-10T02:48:18.746Z,10.91
2019-05-10T02:50:49.769Z,11.00
2019-05-10T02:53:20.373Z,11.04
2019-05-10T02:55:52.151Z,11.13
2019-05-10T02:58:23.447Z,11.21
2019-05-10T03:00:56.049Z,11.23
2019-05-10T03:03:28.856Z,11.27
2019-05-10T03:06:04.400Z,11.32
2019-05-10T03:08:54.589Z,11.33
2019-05-10T03:11:28.394Z,11.33
2019-05-10T03:14:02.381Z,11.35
2019-05-10T03:16:36.719Z,11.46
2019-05-10T03:19:09.090Z,11.47
2019-05-10T03:21:43.001Z,11.50
2019-05-10T03:24:13.940Z,11.53
2019-05-10T03:26:50.934Z,11.58
2019-05-10T03:29:18.998Z,11.60
2019-05-10T03:31:50.041Z,11.70
2019-05-10T03:34:21.881Z,11.68
2019-05-10T03:36:53.023Z,11.77
2019-05-10T03:39:23.964Z,11.78
2019-05-10T03:41:54.745Z,11.92
2019-05-10T03:44:25.628Z,11.94
2019-05-10T03:47:00.258Z,11.94
2019-05-10T03:49:30.990Z,11.93
2019-05-10T03:52:01.818Z,11.93
2019-05-10T03:54:32.862Z,12.03
2019-05-10T03:57:13.274Z,11.98
2019-05-10T03:59:36.155Z,12.01
2019-05-10T04:02:08.536Z,12.04
2019-05-10T04:04:39.167Z,12.09
2019-05-10T04:07:10.102Z,12.09
2019-05-10T04:09:42.168Z,12.05
2019-05-10T04:12:13.002Z,12.07
2019-05-10T04:14:46.204Z,12.13
2019-05-10T04:17:17.131Z,12.19
2019-05-10T04:19:50.224Z,12.21
2019-05-10T04:22:21.688Z,12.28
2019-05-10T04:24:52.606Z,12.38
2019-05-10T04:27:32.447Z,12.49
2019-05-10T04:29:58.472Z,12.61
2019-05-10T04:32:29.308Z,12.77
2019-05-10T04:35:00.346Z,12.90
2019-05-10T04:37:31.285Z,12.89
2019-05-10T04:40:02.329Z,12.79
2019-05-10T04:42:33.270Z,12.85
2019-05-10T04:45:07.182Z,12.82
2019-05-10T04:47:40.557Z,12.81
2019-05-10T04:50:11.806Z,13.00
2019-05-10T04:52:42.338Z,13.12
2019-05-10T04:55:13.267Z,13.21
2019-05-10T04:57:50.547Z,13.11
2019-05-10T05:00:16.549Z,13.05
2019-05-10T05:02:47.434Z,13.03
2019-05-10T05:05:18.247Z,13.11
2019-05-10T05:07:49.388Z,13.11
2019-05-10T05:10:21.965Z,13.18
2019-05-10T05:12:52.594Z,13.10
2019-05-10T05:15:23.633Z,13.16
2019-05-10T05:17:54.778Z,13.25
2019-05-10T05:20:25.919Z,13.23
2019-05-10T05:22:56.880Z,13.25
2019-05-10T05:25:27.997Z,13.33
2019-05-10T05:28:07.898Z,13.54
2019-05-10T05:30:31.533Z,13.71
2019-05-10T05:33:02.345Z,13.74
2019-05-10T05:35:33.793Z,13.56
2019-05-10T05:38:04.472Z,13.83
2019-05-10T05:40:35.565Z,14.02
2019-05-10T05:43:09.718Z,14.21
2019-05-10T05:45:40.461Z,14.25
2019-05-10T05:48:16.079Z,14.47
2019-05-10T05:50:44.539Z,14.60
2019-05-10T05:53:17.217Z,14.81
2019-05-10T05:55:48.048Z,15.10
2019-05-10T05:58:26.663Z,15.13
2019-05-10T06:00:51.873Z,15.05
2019-05-10T06:03:29.391Z,15.24
2019-05-10T06:05:56.816Z,15.26
2019-05-10T06:08:30.079Z,15.15
2019-05-10T06:11:00.296Z,15.28
2019-05-10T06:13:32.585Z,15.44
2019-05-10T06:16:06.363Z,15.54
2019-05-10T06:18:41.673Z,15.85
2019-05-10T06:21:10.262Z,15.92
2019-05-10T06:23:41.734Z,15.78
2019-05-10T06:26:21.143Z,16.08
2019-05-10T06:28:58.344Z,16.32
2019-05-10T06:31:18.373Z,16.72
2019-05-10T06:33:49.001Z,17.05
2019-05-10T06:36:19.858Z,16.85
2019-05-10T06:38:51.083Z,16.93
2019-05-10T06:41:22.391Z,17.26
2019-05-10T06:43:54.124Z,17.41
2019-05-10T07:01:20.311Z,17.45
2019-05-10T07:03:51.165Z,17.09
2019-05-10T07:06:22.120Z,17.21
2019-05-10T07:08:58.058Z,16.98
2019-05-10T07:11:25.331Z,17.16
2019-05-10T07:13:56.742Z,16.88
2019-05-10T07:16:27.815Z,16.76
2019-05-10T07:19:00.456Z,17.02
2019-05-10T07:21:32.574Z,17.39
2019-05-10T07:24:04.859Z,17.45
2019-05-10T07:26:35.474Z,17.75
2019-05-10T07:29:07.031Z,17.86
2019-05-10T07:31:37.806Z,17.89
2019-05-10T07:34:09.618Z,17.91
2019-05-10T07:36:41.452Z,17.59
2019-05-10T07:39:12.289Z,17.39
2019-05-10T07:41:43.235Z,17.61
2019-05-10T07:44:14.272Z,17.61
2019-05-10T07:46:47.002Z,17.88
2019-05-10T07:49:17.629Z,17.90
2019-05-10T07:51:48.620Z,17.86
2019-05-10T07:54:19.454Z,18.36
2019-05-10T07:56:50.386Z,18.36
2019-05-10T07:59:25.299Z,18.48
2019-05-10T08:01:54.110Z,18.66
2019-05-10T08:04:29.121Z,18.69
2019-05-10T08:06:59.710Z,18.63
2019-05-10T08:09:31.817Z,18.85
2019-05-10T08:12:05.098Z,18.93
2019-05-10T08:14:39.366Z,19.12
2019-05-10T08:17:10.074Z,19.24
2019-05-10T08:19:41.111Z,19.55
2019-05-10T08:22:12.904Z,19.54
2019-05-10T08:24:54.479Z,19.47
2019-05-10T08:27:18.439Z,19.72
2019-05-10T08:30:15.921Z,19.70
2019-05-10T08:32:25.648Z,19.83
2019-05-10T08:34:56.979Z,19.99
2019-05-10T08:37:36.013Z,20.25
2019-05-10T08:40:03.240Z,19.94
2019-05-10T08:42:44.239Z,19.63
2019-05-10T08:45:09.173Z,19.40
2019-05-10T08:47:42.452Z,19.49
2019-05-10T08:50:28.789Z,18.94
2019-05-10T08:52:46.671Z,19.22
2019-05-10T08:55:17.892Z,19.12
2019-05-10T08:57:52.342Z,19.25
2019-05-10T09:00:41.484Z,18.92
2019-05-10T09:03:00.881Z,18.77
2019-05-10T09:05:31.310Z,19.00
2019-05-10T09:08:05.449Z,19.60
2019-05-10T09:10:34.063Z,20.20
2019-05-10T09:13:05.002Z,20.54
2019-05-10T09:15:43.264Z,20.42
2019-05-10T09:18:08.273Z,20.54
2019-05-10T09:20:42.146Z,20.16
2019-05-10T09:23:15.321Z,19.37
2019-05-10T09:25:43.986Z,18.95
2019-05-10T09:28:17.135Z,18.79
2019-05-10T09:31:00.012Z,18.45
2019-05-10T09:33:22.418Z,18.28
2019-05-10T09:35:55.040Z,18.55
2019-05-10T09:38:28.749Z,18.72
2019-05-10T09:40:59.577Z,19.06
2019-05-10T09:43:31.927Z,20.02
2019-05-10T09:46:02.920Z,20.04
2019-05-10T09:48:33.915Z,20.03
2019-05-10T09:51:06.977Z,19.78
2019-05-10T09:53:38.466Z,19.40
2019-05-10T09:56:09.369Z,19.06
2019-05-10T09:58:40.388Z,18.86
2019-05-10T10:01:18.137Z,18.82
2019-05-10T10:03:44.969Z,18.62
2019-05-10T10:06:16.715Z,18.24
2019-05-10T10:08:53.179Z,18.14
2019-05-10T10:11:21.545Z,18.50
2019-05-10T10:13:59.137Z,19.13
2019-05-10T10:16:28.275Z,19.28
2019-05-10T10:18:59.275Z,19.27
2019-05-10T10:21:34.940Z,19.29
2019-05-10T10:24:12.712Z,19.19
2019-05-10T10:26:34.847Z,19.07
2019-05-10T10:29:07.292Z,18.92
2019-05-10T10:31:48.456Z,18.62
2019-05-10T10:34:10.488Z,18.47
2019-05-10T10:36:43.991Z,18.24
2019-05-10T10:39:16.879Z,17.78
2019-05-10T10:41:48.175Z,17.55
2019-05-10T10:44:19.498Z,17.61
2019-05-10T10:46:51.154Z,17.73
2019-05-10T10:49:23.186Z,18.74
2019-05-10T10:51:57.205Z,20.85
2019-05-10T10:54:36.263Z,21.96
2019-05-10T10:57:00.432Z,21.10
2019-05-10T10:59:31.478Z,20.03
2019-05-10T11:02:30.885Z,19.47
2019-05-10T11:04:40.396Z,19.24
2019-05-10T11:07:10.886Z,19.25
2019-05-10T11:09:41.803Z,19.53
2019-05-10T11:12:14.630Z,19.65
2019-05-10T11:14:46.923Z,22.29
2019-05-10T11:17:19.198Z,22.68
2019-05-10T11:19:50.136Z,23.25
2019-05-10T11:22:21.552Z,23.03
2019-05-10T11:25:00.724Z,21.99
2019-05-10T11:27:24.490Z,22.33
2019-05-10T11:29:55.742Z,21.88
2019-05-10T11:32:26.154Z,22.85
2019-05-10T11:34:58.623Z,24.24
2019-05-10T11:37:32.873Z,26.91
2019-05-10T11:40:02.029Z,27.76
2019-05-10T11:42:37.572Z,28.98
2019-05-10T11:45:07.084Z,29.29
2019-05-10T11:47:37.836Z,28.97
2019-05-10T11:50:10.620Z,26.55
2019-05-10T11:52:42.963Z,25.49
2019-05-10T11:55:13.909Z,27.14
2019-05-10T11:57:59.881Z,28.26
2019-05-10T12:00:28.224Z,25.74
2019-05-10T12:03:11.224Z,27.49
2019-05-10T12:05:26.736Z,28.56
2019-05-10T12:07:57.253Z,28.53
2019-05-10T12:10:28.339Z,28.25
2019-05-10T12:13:11.384Z,27.59
2019-05-10T12:15:32.165Z,27.26
2019-05-10T12:18:04.962Z,27.21
2019-05-10T12:36:22.362Z,26.41
2019-05-10T12:38:43.645Z,25.44
2019-05-10T12:41:15.265Z,24.71
2019-05-10T12:43:48.290Z,27.40
2019-05-10T12:46:20.724Z,26.05
2019-05-10T12:48:54.270Z,24.54
2019-05-10T12:51:24.971Z,23.38
2019-05-10T12:53:55.528Z,22.58
2019-05-10T12:56:26.570Z,22.04
2019-05-10T12:58:59.704Z,23.26
2019-05-10T13:01:33.136Z,25.11
2019-05-10T13:04:13.317Z,26.74
2019-05-10T13:07:17.013Z,28.11
2019-05-10T13:09:50.061Z,29.36
2019-05-10T13:12:20.453Z,29.07
2019-05-10T13:14:53.214Z,29.07
2019-05-10T13:17:24.081Z,28.08
2019-05-10T13:19:58.645Z,26.03
2019-05-10T13:22:37.108Z,23.79
2019-05-10T13:24:59.317Z,22.59
2019-05-10T13:27:30.034Z,22.09
2019-05-10T13:30:02.549Z,24.30
2019-05-10T13:32:33.473Z,23.58
2019-05-10T13:35:04.067Z,22.81
2019-05-10T13:37:39.232Z,22.15
2019-05-10T13:40:11.167Z,21.31
2019-05-10T13:42:45.674Z,20.61
2019-05-10T13:45:15.217Z,20.28
2019-05-10T13:47:46.060Z,20.42
2019-05-10T13:50:17.173Z,20.50
2019-05-10T13:52:48.321Z,20.47
2019-05-10T13:55:19.127Z,20.58
2019-05-10T13:57:54.027Z,20.52
2019-05-10T14:00:33.105Z,20.33
2019-05-10T14:02:56.364Z,21.37
2019-05-10T14:05:27.310Z,22.48
2019-05-10T14:07:57.833Z,21.47
2019-05-10T14:10:29.684Z,20.97
2019-05-10T14:13:02.549Z,20.50
2019-05-10T14:15:32.284Z,20.30
2019-05-10T14:18:03.120Z,20.03
2019-05-10T14:20:34.437Z,19.71
2019-05-10T14:23:05.800Z,19.66
2019-05-10T14:25:39.028Z,19.57
2019-05-10T14:28:15.440Z,19.98
2019-05-10T14:30:46.871Z,20.71
2019-05-10T14:33:17.151Z,22.24
2019-05-10T14:35:47.353Z,23.08
2019-05-10T14:38:18.912Z,21.04
2019-05-10T14:40:52.612Z,19.48
2019-05-10T14:43:23.514Z,18.15
2019-05-10T14:45:54.332Z,17.51
2019-05-10T14:48:28.931Z,17.27
2019-05-10T14:51:03.018Z,17.31
2019-05-10T14:53:30.899Z,17.84
2019-05-10T14:56:02.130Z,18.82
2019-05-10T14:58:32.898Z,18.47
2019-05-10T15:01:03.995Z,17.76
2019-05-10T15:03:40.804Z,17.32
2019-05-10T15:06:06.902Z,17.02
2019-05-10T15:08:39.981Z,16.72
2019-05-10T15:11:10.612Z,17.21
2019-05-10T15:13:41.367Z,17.14
2019-05-10T15:16:18.630Z,16.93
2019-05-10T15:18:44.660Z,16.96
2019-05-10T15:21:15.348Z,16.73
2019-05-10T15:23:46.158Z,16.70
2019-05-10T15:26:17.057Z,16.94
2019-05-10T15:28:47.998Z,16.96
2019-05-10T15:31:23.639Z,17.10
2019-05-10T15:33:51.915Z,17.20
2019-05-10T15:36:29.108Z,17.09
2019-05-10T15:38:56.037Z,17.00
2019-05-10T15:41:26.685Z,16.75
2019-05-10T15:43:57.509Z,16.68
2019-05-10T15:46:36.207Z,16.81
2019-05-10T15:49:01.016Z,17.14
2019-05-10T15:51:36.252Z,17.35
2019-05-10T15:54:07.480Z,17.71
2019-05-10T15:56:41.619Z,18.46
2019-05-10T15:59:12.924Z,18.47
2019-05-10T16:01:45.420Z,19.15
2019-05-10T16:04:15.038Z,20.14
2019-05-10T16:06:45.671Z,20.69
2019-05-10T16:09:17.796Z,20.99
2019-05-10T16:11:48.771Z,21.91
2019-05-10T16:14:19.917Z,21.90
2019-05-10T16:16:51.776Z,21.67
2019-05-10T16:19:22.509Z,21.60
2019-05-10T16:21:54.691Z,21.49
2019-05-10T16:24:28.103Z,21.15
2019-05-10T16:27:01.774Z,20.90
2019-05-10T16:29:33.837Z,19.93
2019-05-10T16:32:02.626Z,19.82
2019-05-10T16:34:34.266Z,19.28
2019-05-10T16:37:04.811Z,18.87
2019-05-10T16:39:35.439Z,18.65
2019-05-10T16:42:06.136Z,18.11
2019-05-10T16:44:37.200Z,17.70
2019-05-10T16:47:07.426Z,17.65
2019-05-10T16:49:38.463Z,17.27
2019-05-10T16:52:09.296Z,16.77
2019-05-10T16:54:41.772Z,16.30
2019-05-10T16:57:12.397Z,15.92
2019-05-10T16:59:43.231Z,15.67
2019-05-10T17:02:14.021Z,15.47
2019-05-10T17:04:44.963Z,15.37
2019-05-10T17:07:18.825Z,15.16
2019-05-10T17:09:54.776Z,15.05
2019-05-10T17:12:27.590Z,15.00
2019-05-10T17:15:02.033Z,14.87
2019-05-10T17:17:31.379Z,14.75
2019-05-10T17:20:07.344Z,14.74
2019-05-10T17:22:35.912Z,14.74
2019-05-10T17:25:09.304Z,14.69
2019-05-10T17:27:42.693Z,14.65
2019-05-10T17:30:13.665Z,14.57
2019-05-10T17:32:44.213Z,14.51
2019-05-10T17:35:15.610Z,14.48
2019-05-10T17:37:46.545Z,14.49
2019-05-10T17:40:17.765Z,14.43
2019-05-10T17:42:51.509Z,14.26
2019-05-10T17:45:22.036Z,14.15
2019-05-10T17:47:53.097Z,14.03
2019-05-10T17:50:23.895Z,14.00
2019-05-10T17:52:54.854Z,14.00
2019-05-10T17:55:25.873Z,14.07
2019-05-10T17:57:56.818Z,14.01
2019-05-10T18:00:28.372Z,14.11
2019-05-10T18:03:00.120Z,14.09
2019-05-10T18:05:31.157Z,14.01
2019-05-10T18:08:03.022Z,14.03
2019-05-10T18:10:33.645Z,13.95
2019-05-10T18:13:05.277Z,13.90
2019-05-10T18:15:36.032Z,13.86
2019-05-10T18:18:08.514Z,13.78
2019-05-10T18:20:41.990Z,13.74
2019-05-10T18:23:20.131Z,13.73
2019-05-10T18:25:44.799Z,13.63
2019-05-10T18:28:18.946Z,13.55
2019-05-10T18:30:48.310Z,13.56
2019-05-10T18:33:19.552Z,13.56
2019-05-10T18:35:52.713Z,13.47
2019-05-10T18:38:24.104Z,13.44
2019-05-10T18:40:54.718Z,13.30
2019-05-10T18:43:25.691Z,13.26
2019-05-10T18:46:01.245Z,13.21
2019-05-10T18:48:30.096Z,13.13
2019-05-10T18:51:00.968Z,13.17
2019-05-10T18:53:31.791Z,13.12
2019-05-10T18:56:02.806Z,13.13
2019-05-10T18:58:33.662Z,13.08
2019-05-10T19:01:04.741Z,13.01
2019-05-10T19:03:35.934Z,12.92
2019-05-10T19:06:10.844Z,12.90
2019-05-10T19:08:38.911Z,12.95
2019-05-10T19:11:10.003Z,12.93
2019-05-10T19:13:48.004Z,12.93
2019-05-10T19:16:13.477Z,12.87
2019-05-10T19:18:46.148Z,12.85
2019-05-10T19:21:16.884Z,12.78
2019-05-10T19:23:52.333Z,12.78
2019-05-10T19:26:23.902Z,12.76
2019-05-10T19:28:58.931Z,12.69
2019-05-10T19:31:31.821Z,12.68
2019-05-10T19:34:00.889Z,12.67
2019-05-10T19:36:31.826Z,12.66
2019-05-10T19:39:04.813Z,12.61
2019-05-10T19:41:35.748Z,12.58
2019-05-10T19:44:07.094Z,12.61
2019-05-10T19:46:40.568Z,12.64
2019-05-10T19:49:13.208Z,12.64
2019-05-10T19:51:48.373Z,12.67
2019-05-10T19:54:19.651Z,12.63
2019-05-10T19:56:49.440Z,12.53
2019-05-10T19:59:21.105Z,12.53
2019-05-10T20:01:52.157Z,12.50
2019-05-10T20:04:22.991Z,12.38
2019-05-10T20:06:53.781Z,12.38
2019-05-10T20:09:24.991Z,12.34
2019-05-10T20:11:55.932Z,12.28
2019-05-10T20:14:26.624Z,12.28
2019-05-10T20:16:59.321Z,12.24
2019-05-10T20:19:30.173Z,12.23
2019-05-10T20:22:01.021Z,12.20
2019-05-10T20:24:32.023Z,12.16
2019-05-10T20:27:04.428Z,12.18
2019-05-10T20:29:35.229Z,12.18
2019-05-10T20:32:06.267Z,12.20
2019-05-10T20:34:37.610Z,12.21
2019-05-10T20:37:08.546Z,12.23
2019-05-10T20:39:39.281Z,12.25
2019-05-10T20:42:11.655Z,12.20
2019-05-10T20:44:42.384Z,12.19
2019-05-10T20:47:13.943Z,12.20
2019-05-10T20:49:45.278Z,12.18
2019-05-10T20:52:18.612Z,12.18
2019-05-10T20:54:49.443Z,12.22
2019-05-10T20:57:21.062Z,12.13
2019-05-10T20:59:51.842Z,12.07
2019-05-10T21:02:24.781Z,11.99
2019-05-10T21:04:57.259Z,12.00
2019-05-10T21:07:29.114Z,11.98
2019-05-10T21:10:00.057Z,11.92
2019-05-10T21:12:30.685Z,11.96
2019-05-10T21:15:01.865Z,11.94
2019-05-10T21:17:32.865Z,11.93
2019-05-10T21:20:04.167Z,11.90
2019-05-10T21:22:34.840Z,11.90
2019-05-10T21:25:07.519Z,11.97
2019-05-10T21:27:37.938Z,12.02
2019-05-10T21:30:09.397Z,12.07
2019-05-10T21:32:39.927Z,12.13
2019-05-10T21:35:13.620Z,12.18
2019-05-10T21:37:44.502Z,12.20
2019-05-10T21:40:15.392Z,12.22
2019-05-10T21:42:47.660Z,12.30
2019-05-10T21:45:19.932Z,12.30
2019-05-10T21:47:51.994Z,12.38
2019-05-10T21:50:23.690Z,12.44
2019-05-10T21:52:54.904Z,12.52
2019-05-10T21:55:25.682Z,12.53
2019-05-10T21:57:57.284Z,12.59
2019-05-10T22:00:30.678Z,12.64
2019-05-10T22:03:01.510Z,12.65
2019-05-10T22:05:33.050Z,12.69
2019-05-10T22:08:03.813Z,12.71
2019-05-10T22:10:35.556Z,12.68
2019-05-10T22:13:06.585Z,12.69
2019-05-10T22:15:38.238Z,12.72
2019-05-10T22:18:08.743Z,12.76
2019-05-10T22:20:41.242Z,12.78
2019-05-10T22:23:11.981Z,12.78
2019-05-10T22:25:42.844Z,12.78
2019-05-10T22:28:13.507Z,12.81
2019-05-10T22:30:44.698Z,12.80
2019-05-10T22:33:15.729Z,12.80
2019-05-10T22:35:47.995Z,12.83
2019-05-10T22:38:18.837Z,12.82
2019-05-10T22:40:52.126Z,12.82
2019-05-10T22:43:23.880Z,12.85
2019-05-10T22:45:54.301Z,12.82
2019-05-10T22:48:25.175Z,12.87
2019-05-10T22:50:56.176Z,12.92
2019-05-10T22:53:26.943Z,12.96
2019-05-10T22:55:57.861Z,12.97
2019-05-10T22:58:31.956Z,12.97
2019-05-10T23:01:06.477Z,12.94
2019-05-10T23:03:37.424Z,12.93
2019-05-10T23:06:08.509Z,12.87
2019-05-10T23:08:39.395Z,12.88
2019-05-10T23:11:13.503Z,12.87
2019-05-10T23:13:44.031Z,12.86
2019-05-10T23:16:14.348Z,12.84
2019-05-10T23:18:46.209Z,12.87
2019-05-10T23:21:16.839Z,12.89
2019-05-10T23:23:47.470Z,12.87
2019-05-10T23:26:18.813Z,12.86
2019-05-10T23:28:49.215Z,12.82
2019-05-10T23:31:20.793Z,12.82
2019-05-10T23:33:51.325Z,12.86
2019-05-10T23:36:24.184Z,12.85
2019-05-10T23:38:54.835Z,12.84
2019-05-10T23:41:25.668Z,12.88
2019-05-10T23:43:58.039Z,12.88
2019-05-10T23:46:32.008Z,12.90
2019-05-10T23:49:02.794Z,12.87
2019-05-10T23:51:34.127Z,12.85
2019-05-10T23:54:05.889Z,12.88
2019-05-10T23:56:36.704Z,12.64
2019-05-10T23:59:07.850Z,12.91
